sensor_id;sensor_type;location;lat;lon;timestamp;pressure;altitude;pressure_sealevel;temperature;humidity
2875;BME280;1445;52.600;13.328;2023-03-25T00:00:08;99660.22;;;9.08;100.00
2875;BME280;1445;52.600;13.328;2023-03-25T00:02:47;99661.66;;;9.05;100.00
2875;BME280;1445;52.600;13.328;2023-03-25T00:05:14;99661.88;;;9.09;100.00
2875;BME280;1445;52.600;13.328;2023-03-25T00:07:41;99668.63;;;9.03;100.00
2875;BME280;1445;52.600;13.328;2023-03-25T00:10:08;99668.13;;;9.01;100.00
2875;BME280;1445;52.600;13.328;2023-03-25T00:12:33;99663.59;;;8.96;100.00
2875;BME280;1445;52.600;13.328;2023-03-25T00:14:59;99667.59;;;8.90;100.00
2875;BME280;1445;52.600;13.328;2023-03-25T00:17:25;99660.31;;;8.86;100.00
2875;BME280;1445;52.600;13.328;2023-03-25T00:19:56;99659.63;;;8.80;100.00
2875;BME280;1445;52.600;13.328;2023-03-25T00:22:21;99661.56;;;8.79;100.00
2875;BME280;1445;52.600;13.328;2023-03-25T00:24:47;99654.28;;;8.75;100.00
2875;BME280;1445;52.600;13.328;2023-03-25T00:27:13;99661.84;;;8.69;100.00
2875;BME280;1445;52.600;13.328;2023-03-25T00:29:42;99648.72;;;8.66;100.00
2875;BME280;1445;52.600;13.328;2023-03-25T00:32:09;99657.78;;;8.67;100.00
2875;BME280;1445;52.600;13.328;2023-03-25T00:34:35;99658.44;;;8.64;100.00
2875;BME280;1445;52.600;13.328;2023-03-25T00:37:07;99676.16;;;8.57;100.00
2875;BME280;1445;52.600;13.328;2023-03-25T00:39:34;99672.91;;;8.55;100.00
2875;BME280;1445;52.600;13.328;2023-03-25T00:41:59;99673.44;;;8.57;100.00
2875;BME280;1445;52.600;13.328;2023-03-25T00:44:27;99686.16;;;8.53;100.00
2875;BME280;1445;52.600;13.328;2023-03-25T00:46:53;99682.91;;;8.51;100.00
2875;BME280;1445;52.600;13.328;2023-03-25T00:49:18;99687.09;;;8.49;100.00
2875;BME280;1445;52.600;13.328;2023-03-25T00:51:44;99689.16;;;8.43;100.00
2875;BME280;1445;52.600;13.328;2023-03-25T00:54:10;99689.03;;;8.48;100.00
2875;BME280;1445;52.600;13.328;2023-03-25T00:56:36;99694.97;;;8.42;100.00
2875;BME280;1445;52.600;13.328;2023-03-25T00:59:01;99693.03;;;8.42;100.00
2875;BME280;1445;52.600;13.328;2023-03-25T01:01:28;99707.19;;;8.35;100.00
2875;BME280;1445;52.600;13.328;2023-03-25T01:03:55;99705.94;;;8.42;100.00
2875;BME280;1445;52.600;13.328;2023-03-25T01:06:34;99711.25;;;8.38;100.00
2875;BME280;1445;52.600;13.328;2023-03-25T01:09:03;99705.53;;;8.34;100.00
2875;BME280;1445;52.600;13.328;2023-03-25T01:11:31;99717.34;;;8.35;100.00
2875;BME280;1445;52.600;13.328;2023-03-25T01:13:59;99710.22;;;8.34;100.00
2875;BME280;1445;52.600;13.328;2023-03-25T01:16:26;99707.81;;;8.32;100.00
2875;BME280;1445;52.600;13.328;2023-03-25T01:18:53;99712.16;;;8.33;100.00
2875;BME280;1445;52.600;13.328;2023-03-25T01:21:18;99708.00;;;8.36;100.00
2875;BME280;1445;52.600;13.328;2023-03-25T01:23:44;99694.78;;;8.38;100.00
2875;BME280;1445;52.600;13.328;2023-03-25T01:26:10;99697.81;;;8.36;100.00
2875;BME280;1445;52.600;13.328;2023-03-25T01:28:38;99697.72;;;8.42;100.00
2875;BME280;1445;52.600;13.328;2023-03-25T01:31:06;99698.75;;;8.32;100.00
2875;BME280;1445;52.600;13.328;2023-03-25T01:33:32;99704.06;;;8.28;100.00
2875;BME280;1445;52.600;13.328;2023-03-25T01:35:58;99689.19;;;8.29;100.00
2875;BME280;1445;52.600;13.328;2023-03-25T01:38:24;99683.91;;;8.33;100.00
2875;BME280;1445;52.600;13.328;2023-03-25T01:40:51;99687.69;;;8.23;100.00
2875;BME280;1445;52.600;13.328;2023-03-25T01:43:18;99675.72;;;8.19;100.00
2875;BME280;1445;52.600;13.328;2023-03-25T01:45:44;99672.66;;;8.21;100.00
2875;BME280;1445;52.600;13.328;2023-03-25T01:48:15;99663.94;;;8.19;100.00
2875;BME280;1445;52.600;13.328;2023-03-25T01:50:45;99669.91;;;8.21;100.00
2875;BME280;1445;52.600;13.328;2023-03-25T01:53:13;99665.03;;;8.18;100.00
2875;BME280;1445;52.600;13.328;2023-03-25T01:55:39;99666.16;;;8.17;100.00
2875;BME280;1445;52.600;13.328;2023-03-25T01:58:08;99659.38;;;8.14;100.00
2875;BME280;1445;52.600;13.328;2023-03-25T02:00:39;99665.88;;;8.18;100.00
2875;BME280;1445;52.600;13.328;2023-03-25T02:03:06;99659.06;;;8.16;100.00
2875;BME280;1445;52.600;13.328;2023-03-25T02:05:43;99660.56;;;8.22;100.00
2875;BME280;1445;52.600;13.328;2023-03-25T02:08:11;99655.09;;;8.22;100.00
2875;BME280;1445;52.600;13.328;2023-03-25T02:10:37;99649.44;;;8.27;100.00
2875;BME280;1445;52.600;13.328;2023-03-25T02:13:04;99642.53;;;8.29;100.00
2875;BME280;1445;52.600;13.328;2023-03-25T02:15:48;99643.69;;;8.37;100.00
2875;BME280;1445;52.600;13.328;2023-03-25T02:26:45;99624.72;;;8.49;100.00
2875;BME280;1445;52.600;13.328;2023-03-25T02:32:37;99625.75;;;8.53;100.00
2875;BME280;1445;52.600;13.328;2023-03-25T02:38:11;99617.19;;;8.55;100.00
2875;BME280;1445;52.600;13.328;2023-03-25T02:43:13;99611.38;;;8.56;100.00
2875;BME280;1445;52.600;13.328;2023-03-25T02:45:50;99606.53;;;8.62;100.00
2875;BME280;1445;52.600;13.328;2023-03-25T02:48:32;99604.94;;;8.61;100.00
2875;BME280;1445;52.600;13.328;2023-03-25T02:51:06;99600.75;;;8.64;100.00
2875;BME280;1445;52.600;13.328;2023-03-25T02:53:35;99599.75;;;8.59;100.00
2875;BME280;1445;52.600;13.328;2023-03-25T02:56:11;99592.63;;;8.58;100.00
2875;BME280;1445;52.600;13.328;2023-03-25T02:58:40;99588.41;;;8.52;100.00
2875;BME280;1445;52.600;13.328;2023-03-25T03:01:07;99599.44;;;8.61;100.00
2875;BME280;1445;52.600;13.328;2023-03-25T03:03:34;99598.47;;;8.57;100.00
2875;BME280;1445;52.600;13.328;2023-03-25T03:06:01;99593.50;;;8.68;100.00
2875;BME280;1445;52.600;13.328;2023-03-25T03:24:38;99614.25;;;8.51;100.00
2875;BME280;1445;52.600;13.328;2023-03-25T03:27:18;99631.16;;;8.45;100.00
2875;BME280;1445;52.600;13.328;2023-03-25T03:29:51;99634.72;;;8.45;100.00
2875;BME280;1445;52.600;13.328;2023-03-25T03:32:28;99637.63;;;8.40;100.00
2875;BME280;1445;52.600;13.328;2023-03-25T03:35:03;99656.03;;;8.40;100.00
2875;BME280;1445;52.600;13.328;2023-03-25T03:37:40;99654.81;;;8.32;100.00
2875;BME280;1445;52.600;13.328;2023-03-25T03:40:15;99660.13;;;8.28;100.00
2875;BME280;1445;52.600;13.328;2023-03-25T03:42:59;99672.03;;;8.24;100.00
2875;BME280;1445;52.600;13.328;2023-03-25T03:45:31;99673.78;;;8.20;100.00
2875;BME280;1445;52.600;13.328;2023-03-25T03:48:02;99683.44;;;8.17;100.00
2875;BME280;1445;52.600;13.328;2023-03-25T03:50:36;99681.66;;;8.12;100.00
2875;BME280;1445;52.600;13.328;2023-03-25T03:53:26;99686.63;;;8.10;100.00
2875;BME280;1445;52.600;13.328;2023-03-25T03:56:18;99682.25;;;8.09;100.00
2875;BME280;1445;52.600;13.328;2023-03-25T03:58:49;99686.75;;;8.05;100.00
2875;BME280;1445;52.600;13.328;2023-03-25T04:01:38;99688.50;;;8.01;100.00
2875;BME280;1445;52.600;13.328;2023-03-25T04:04:12;99691.06;;;7.98;100.00
2875;BME280;1445;52.600;13.328;2023-03-25T04:06:43;99687.50;;;7.97;100.00
2875;BME280;1445;52.600;13.328;2023-03-25T04:14:27;99700.47;;;8.05;100.00
2875;BME280;1445;52.600;13.328;2023-03-25T04:16:54;99692.06;;;8.02;100.00
2875;BME280;1445;52.600;13.328;2023-03-25T04:19:19;99697.72;;;8.05;100.00
2875;BME280;1445;52.600;13.328;2023-03-25T04:21:46;99698.25;;;8.07;100.00
2875;BME280;1445;52.600;13.328;2023-03-25T04:24:12;99701.00;;;8.07;100.00
2875;BME280;1445;52.600;13.328;2023-03-25T04:26:40;99706.28;;;8.04;100.00
2875;BME280;1445;52.600;13.328;2023-03-25T04:29:06;99716.00;;;8.10;100.00
2875;BME280;1445;52.600;13.328;2023-03-25T04:31:33;99717.94;;;8.09;100.00
2875;BME280;1445;52.600;13.328;2023-03-25T04:33:59;99706.47;;;8.07;100.00
2875;BME280;1445;52.600;13.328;2023-03-25T04:36:26;99704.34;;;8.04;100.00
2875;BME280;1445;52.600;13.328;2023-03-25T04:39:02;99704.16;;;8.01;100.00
2875;BME280;1445;52.600;13.328;2023-03-25T04:41:28;99711.59;;;8.00;100.00
2875;BME280;1445;52.600;13.328;2023-03-25T04:43:53;99707.94;;;7.91;100.00
2875;BME280;1445;52.600;13.328;2023-03-25T04:46:19;99708.44;;;7.93;100.00
2875;BME280;1445;52.600;13.328;2023-03-25T04:48:45;99709.28;;;7.94;100.00
2875;BME280;1445;52.600;13.328;2023-03-25T04:51:12;99707.34;;;7.94;100.00
2875;BME280;1445;52.600;13.328;2023-03-25T04:53:39;99702.66;;;7.95;100.00
2875;BME280;1445;52.600;13.328;2023-03-25T04:56:06;99718.94;;;7.91;100.00
2875;BME280;1445;52.600;13.328;2023-03-25T04:58:32;99698.38;;;7.88;100.00
2875;BME280;1445;52.600;13.328;2023-03-25T05:00:58;99708.94;;;7.95;100.00
2875;BME280;1445;52.600;13.328;2023-03-25T05:03:31;99705.88;;;7.97;100.00
2875;BME280;1445;52.600;13.328;2023-03-25T05:05:56;99700.91;;;7.99;100.00
2875;BME280;1445;52.600;13.328;2023-03-25T05:08:22;99708.09;;;8.08;100.00
2875;BME280;1445;52.600;13.328;2023-03-25T05:10:48;99696.59;;;8.06;100.00
2875;BME280;1445;52.600;13.328;2023-03-25T05:13:13;99696.59;;;8.06;100.00
2875;BME280;1445;52.600;13.328;2023-03-25T05:15:39;99702.09;;;8.06;100.00
2875;BME280;1445;52.600;13.328;2023-03-25T05:18:09;99689.81;;;8.04;100.00
2875;BME280;1445;52.600;13.328;2023-03-25T05:20:36;99683.50;;;8.03;100.00
2875;BME280;1445;52.600;13.328;2023-03-25T05:23:07;99680.31;;;8.10;100.00
2875;BME280;1445;52.600;13.328;2023-03-25T05:25:37;99680.03;;;8.11;100.00
2875;BME280;1445;52.600;13.328;2023-03-25T05:28:03;99672.97;;;8.19;100.00
2875;BME280;1445;52.600;13.328;2023-03-25T05:30:30;99676.53;;;8.20;100.00
2875;BME280;1445;52.600;13.328;2023-03-25T05:32:57;99674.16;;;8.27;100.00
2875;BME280;1445;52.600;13.328;2023-03-25T05:35:25;99659.31;;;8.28;100.00
2875;BME280;1445;52.600;13.328;2023-03-25T05:37:51;99656.91;;;8.35;100.00
2875;BME280;1445;52.600;13.328;2023-03-25T05:40:17;99659.25;;;8.42;100.00
2875;BME280;1445;52.600;13.328;2023-03-25T05:42:42;99659.94;;;8.47;100.00
2875;BME280;1445;52.600;13.328;2023-03-25T05:45:14;99650.56;;;8.48;100.00
2875;BME280;1445;52.600;13.328;2023-03-25T05:47:42;99656.44;;;8.55;100.00
2875;BME280;1445;52.600;13.328;2023-03-25T05:50:09;99651.31;;;8.63;100.00
2875;BME280;1445;52.600;13.328;2023-03-25T05:52:35;99655.19;;;8.62;100.00
2875;BME280;1445;52.600;13.328;2023-03-25T05:55:01;99650.22;;;8.72;100.00
2875;BME280;1445;52.600;13.328;2023-03-25T05:57:27;99664.91;;;8.68;100.00
2875;BME280;1445;52.600;13.328;2023-03-25T05:59:52;99650.31;;;8.58;100.00
2875;BME280;1445;52.600;13.328;2023-03-25T06:02:18;99645.44;;;8.55;100.00
2875;BME280;1445;52.600;13.328;2023-03-25T06:04:44;99643.22;;;8.57;100.00
2875;BME280;1445;52.600;13.328;2023-03-25T06:07:12;99651.81;;;8.65;100.00
2875;BME280;1445;52.600;13.328;2023-03-25T06:09:42;99647.31;;;8.69;100.00
2875;BME280;1445;52.600;13.328;2023-03-25T06:12:15;99653.47;;;8.74;100.00
2875;BME280;1445;52.600;13.328;2023-03-25T06:14:42;99647.31;;;8.77;100.00
2875;BME280;1445;52.600;13.328;2023-03-25T06:17:10;99652.69;;;8.82;100.00
2875;BME280;1445;52.600;13.328;2023-03-25T06:19:35;99656.25;;;8.83;100.00
2875;BME280;1445;52.600;13.328;2023-03-25T06:22:04;99643.81;;;8.86;100.00
2875;BME280;1445;52.600;13.328;2023-03-25T06:24:30;99634.78;;;8.85;100.00
2875;BME280;1445;52.600;13.328;2023-03-25T06:26:55;99630.09;;;8.86;100.00
2875;BME280;1445;52.600;13.328;2023-03-25T06:29:21;99631.84;;;8.81;100.00
2875;BME280;1445;52.600;13.328;2023-03-25T06:31:46;99628.50;;;8.93;100.00
2875;BME280;1445;52.600;13.328;2023-03-25T06:34:12;99619.47;;;9.01;100.00
2875;BME280;1445;52.600;13.328;2023-03-25T06:36:37;99618.06;;;9.13;100.00
2875;BME280;1445;52.600;13.328;2023-03-25T06:39:03;99622.59;;;9.17;100.00
2875;BME280;1445;52.600;13.328;2023-03-25T06:41:29;99623.72;;;9.16;100.00
2875;BME280;1445;52.600;13.328;2023-03-25T06:43:55;99616.44;;;9.20;100.00
2875;BME280;1445;52.600;13.328;2023-03-25T06:46:20;99616.28;;;9.17;100.00
2875;BME280;1445;52.600;13.328;2023-03-25T06:48:46;99602.66;;;9.12;100.00
2875;BME280;1445;52.600;13.328;2023-03-25T06:51:11;99605.41;;;9.12;100.00
2875;BME280;1445;52.600;13.328;2023-03-25T06:53:37;99611.91;;;9.16;100.00
2875;BME280;1445;52.600;13.328;2023-03-25T06:56:02;99607.53;;;9.15;100.00
2875;BME280;1445;52.600;13.328;2023-03-25T06:58:27;99604.78;;;9.15;100.00
2875;BME280;1445;52.600;13.328;2023-03-25T07:00:59;99607.41;;;9.20;100.00
2875;BME280;1445;52.600;13.328;2023-03-25T07:03:28;99600.28;;;9.27;100.00
2875;BME280;1445;52.600;13.328;2023-03-25T07:05:53;99600.28;;;9.36;100.00
2875;BME280;1445;52.600;13.328;2023-03-25T07:08:19;99587.84;;;9.47;100.00
2875;BME280;1445;52.600;13.328;2023-03-25T07:10:45;99597.56;;;9.53;100.00
2875;BME280;1445;52.600;13.328;2023-03-25T07:13:10;99598.56;;;9.66;100.00
2875;BME280;1445;52.600;13.328;2023-03-25T07:15:36;99601.47;;;9.70;100.00
2875;BME280;1445;52.600;13.328;2023-03-25T07:18:01;99603.22;;;9.74;100.00
2875;BME280;1445;52.600;13.328;2023-03-25T07:20:26;99587.53;;;9.75;100.00
2875;BME280;1445;52.600;13.328;2023-03-25T07:22:54;99604.84;;;9.84;100.00
2875;BME280;1445;52.600;13.328;2023-03-25T07:25:21;99597.56;;;9.88;100.00
2875;BME280;1445;52.600;13.328;2023-03-25T07:27:46;99592.88;;;9.97;100.00
2875;BME280;1445;52.600;13.328;2023-03-25T07:30:12;99594.28;;;10.03;100.00
2875;BME280;1445;52.600;13.328;2023-03-25T07:32:38;99595.28;;;9.99;100.00
2875;BME280;1445;52.600;13.328;2023-03-25T07:35:04;99592.84;;;10.06;100.00
2875;BME280;1445;52.600;13.328;2023-03-25T07:37:30;99588.13;;;10.07;100.00
2875;BME280;1445;52.600;13.328;2023-03-25T07:39:56;99586.84;;;10.21;100.00
2875;BME280;1445;52.600;13.328;2023-03-25T07:42:21;99609.69;;;10.13;100.00
2875;BME280;1445;52.600;13.328;2023-03-25T07:44:46;99581.97;;;10.10;100.00
2875;BME280;1445;52.600;13.328;2023-03-25T07:47:12;99585.53;;;10.19;100.00
2875;BME280;1445;52.600;13.328;2023-03-25T07:49:37;99597.69;;;10.26;100.00
2875;BME280;1445;52.600;13.328;2023-03-25T07:52:05;99601.41;;;10.39;100.00
2875;BME280;1445;52.600;13.328;2023-03-25T07:54:31;99599.91;;;10.42;100.00
2875;BME280;1445;52.600;13.328;2023-03-25T07:56:56;99608.81;;;10.47;100.00
2875;BME280;1445;52.600;13.328;2023-03-25T07:59:23;99572.59;;;10.66;100.00
2875;BME280;1445;52.600;13.328;2023-03-25T08:01:49;99571.69;;;10.92;100.00
2875;BME280;1445;52.600;13.328;2023-03-25T08:04:14;99568.25;;;10.95;100.00
2875;BME280;1445;52.600;13.328;2023-03-25T08:06:40;99572.34;;;10.89;100.00
2875;BME280;1445;52.600;13.328;2023-03-25T08:09:05;99569.31;;;10.82;100.00
2875;BME280;1445;52.600;13.328;2023-03-25T08:11:31;99561.19;;;10.85;100.00
2875;BME280;1445;52.600;13.328;2023-03-25T08:13:57;99585.78;;;10.90;100.00
2875;BME280;1445;52.600;13.328;2023-03-25T08:16:22;99572.94;;;10.94;100.00
2875;BME280;1445;52.600;13.328;2023-03-25T08:18:48;99565.97;;;10.97;100.00
2875;BME280;1445;52.600;13.328;2023-03-25T08:21:18;99566.31;;;10.95;100.00
2875;BME280;1445;52.600;13.328;2023-03-25T08:23:53;99573.22;;;11.02;100.00
2875;BME280;1445;52.600;13.328;2023-03-25T08:26:25;99567.94;;;10.96;100.00
2875;BME280;1445;52.600;13.328;2023-03-25T08:28:51;99589.34;;;10.91;100.00
2875;BME280;1445;52.600;13.328;2023-03-25T08:31:19;99589.22;;;10.87;100.00
2875;BME280;1445;52.600;13.328;2023-03-25T08:33:45;99582.38;;;10.93;100.00
2875;BME280;1445;52.600;13.328;2023-03-25T08:36:10;99577.38;;;10.87;100.00
2875;BME280;1445;52.600;13.328;2023-03-25T08:38:40;99570.78;;;10.79;100.00
2875;BME280;1445;52.600;13.328;2023-03-25T08:41:06;99565.25;;;10.79;100.00
2875;BME280;1445;52.600;13.328;2023-03-25T08:43:31;99575.00;;;10.77;100.00
2875;BME280;1445;52.600;13.328;2023-03-25T08:45:56;99579.41;;;10.69;100.00
2875;BME280;1445;52.600;13.328;2023-03-25T08:48:22;99580.56;;;10.68;100.00
2875;BME280;1445;52.600;13.328;2023-03-25T08:50:48;99560.41;;;10.76;100.00
2875;BME280;1445;52.600;13.328;2023-03-25T08:53:14;99572.09;;;10.73;100.00
2875;BME280;1445;52.600;13.328;2023-03-25T08:55:40;99582.66;;;10.71;100.00
2875;BME280;1445;52.600;13.328;2023-03-25T08:58:06;99578.13;;;10.66;100.00
2875;BME280;1445;52.600;13.328;2023-03-25T09:00:33;99580.91;;;10.58;100.00
2875;BME280;1445;52.600;13.328;2023-03-25T09:02:59;99565.03;;;10.55;100.00
2875;BME280;1445;52.600;13.328;2023-03-25T09:05:25;99578.16;;;10.58;100.00
2875;BME280;1445;52.600;13.328;2023-03-25T09:07:51;99577.88;;;10.50;100.00
2875;BME280;1445;52.600;13.328;2023-03-25T09:10:16;99580.78;;;10.54;100.00
2875;BME280;1445;52.600;13.328;2023-03-25T09:12:42;99598.47;;;10.44;100.00
2875;BME280;1445;52.600;13.328;2023-03-25T09:15:09;99594.31;;;10.12;100.00
2875;BME280;1445;52.600;13.328;2023-03-25T09:17:35;99602.09;;;9.84;100.00
2875;BME280;1445;52.600;13.328;2023-03-25T09:20:01;99616.69;;;9.59;100.00
2875;BME280;1445;52.600;13.328;2023-03-25T09:22:26;99634.47;;;9.52;100.00
2875;BME280;1445;52.600;13.328;2023-03-25T09:24:52;99637.84;;;9.49;100.00
2875;BME280;1445;52.600;13.328;2023-03-25T09:27:17;99650.97;;;9.52;100.00
2875;BME280;1445;52.600;13.328;2023-03-25T09:29:42;99647.91;;;9.63;100.00
2875;BME280;1445;52.600;13.328;2023-03-25T09:32:08;99638.03;;;9.70;100.00
2875;BME280;1445;52.600;13.328;2023-03-25T09:34:33;99630.59;;;9.71;100.00
2875;BME280;1445;52.600;13.328;2023-03-25T09:36:59;99624.94;;;9.76;100.00
2875;BME280;1445;52.600;13.328;2023-03-25T09:39:25;99622.50;;;9.92;100.00
2875;BME280;1445;52.600;13.328;2023-03-25T09:45:17;99608.94;;;10.60;100.00
2875;BME280;1445;52.600;13.328;2023-03-25T09:48:22;99611.91;;;10.93;100.00
2875;BME280;1445;52.600;13.328;2023-03-25T09:50:49;99607.31;;;11.27;100.00
2875;BME280;1445;52.600;13.328;2023-03-25T09:55:41;99577.47;;;11.50;100.00
2875;BME280;1445;52.600;13.328;2023-03-25T10:01:06;99576.28;;;11.59;100.00
2875;BME280;1445;52.600;13.328;2023-03-25T10:07:23;99597.88;;;11.57;100.00
2875;BME280;1445;52.600;13.328;2023-03-25T10:15:57;99592.56;;;11.73;100.00
2875;BME280;1445;52.600;13.328;2023-03-25T10:21:15;99570.59;;;11.98;100.00
2875;BME280;1445;52.600;13.328;2023-03-25T10:23:58;99575.84;;;12.11;100.00
2875;BME280;1445;52.600;13.328;2023-03-25T10:26:31;99567.88;;;12.10;100.00
2875;BME280;1445;52.600;13.328;2023-03-25T10:29:09;99552.97;;;11.90;100.00
2875;BME280;1445;52.600;13.328;2023-03-25T10:31:50;99558.06;;;12.00;100.00
2875;BME280;1445;52.600;13.328;2023-03-25T10:34:18;99556.44;;;12.45;100.00
2875;BME280;1445;52.600;13.328;2023-03-25T10:36:49;99590.78;;;12.56;100.00
2875;BME280;1445;52.600;13.328;2023-03-25T10:39:20;99611.47;;;12.37;100.00
2875;BME280;1445;52.600;13.328;2023-03-25T10:41:58;99539.75;;;12.29;100.00
2875;BME280;1445;52.600;13.328;2023-03-25T10:44:25;99544.56;;;12.32;100.00
2875;BME280;1445;52.600;13.328;2023-03-25T10:47:01;99572.97;;;12.20;100.00
2875;BME280;1445;52.600;13.328;2023-03-25T10:49:29;99541.22;;;12.26;100.00
2875;BME280;1445;52.600;13.328;2023-03-25T10:51:56;99542.97;;;12.55;100.00
2875;BME280;1445;52.600;13.328;2023-03-25T10:54:30;99562.44;;;12.59;100.00
2875;BME280;1445;52.600;13.328;2023-03-25T10:57:00;99535.94;;;12.46;100.00
2875;BME280;1445;52.600;13.328;2023-03-25T10:59:35;99543.78;;;12.80;100.00
2875;BME280;1445;52.600;13.328;2023-03-25T11:02:14;99538.50;;;12.75;100.00
2875;BME280;1445;52.600;13.328;2023-03-25T11:04:42;99555.66;;;12.69;100.00
2875;BME280;1445;52.600;13.328;2023-03-25T11:07:50;99537.34;;;12.39;100.00
2875;BME280;1445;52.600;13.328;2023-03-25T11:10:23;99541.69;;;12.53;100.00
2875;BME280;1445;52.600;13.328;2023-03-25T11:12:50;99533.72;;;12.27;100.00
2875;BME280;1445;52.600;13.328;2023-03-25T11:15:25;99536.13;;;12.16;100.00
2875;BME280;1445;52.600;13.328;2023-03-25T11:20:30;99538.84;;;12.04;100.00
2875;BME280;1445;52.600;13.328;2023-03-25T11:23:06;99552.84;;;11.86;100.00
2875;BME280;1445;52.600;13.328;2023-03-25T11:25:37;99577.88;;;11.81;100.00
2875;BME280;1445;52.600;13.328;2023-03-25T11:28:18;99559.75;;;11.30;100.00
2875;BME280;1445;52.600;13.328;2023-03-25T11:31:05;99576.06;;;10.55;100.00
2875;BME280;1445;52.600;13.328;2023-03-25T11:33:31;99572.44;;;9.90;100.00
2875;BME280;1445;52.600;13.328;2023-03-25T11:38:45;99580.41;;;9.39;100.00
2875;BME280;1445;52.600;13.328;2023-03-25T11:41:12;99583.66;;;9.59;100.00
2875;BME280;1445;52.600;13.328;2023-03-25T11:43:39;99584.09;;;10.13;100.00
2875;BME280;1445;52.600;13.328;2023-03-25T11:46:08;99572.59;;;10.66;100.00
2875;BME280;1445;52.600;13.328;2023-03-25T11:48:37;99569.34;;;10.73;100.00
2875;BME280;1445;52.600;13.328;2023-03-25T11:51:07;99554.31;;;11.21;100.00
2875;BME280;1445;52.600;13.328;2023-03-25T11:53:35;99534.09;;;11.92;100.00
2875;BME280;1445;52.600;13.328;2023-03-25T11:56:04;99536.28;;;12.56;100.00
2875;BME280;1445;52.600;13.328;2023-03-25T11:58:35;99531.44;;;12.29;100.00
2875;BME280;1445;52.600;13.328;2023-03-25T12:01:05;99528.25;;;11.73;100.00
2875;BME280;1445;52.600;13.328;2023-03-25T12:03:33;99528.53;;;11.80;100.00
2875;BME280;1445;52.600;13.328;2023-03-25T12:06:15;99515.31;;;12.18;100.00
2875;BME280;1445;52.600;13.328;2023-03-25T12:08:47;99508.25;;;12.09;100.00
2875;BME280;1445;52.600;13.328;2023-03-25T12:11:17;99518.13;;;11.98;100.00
2875;BME280;1445;52.600;13.328;2023-03-25T12:17:13;99518.34;;;11.71;100.00
2875;BME280;1445;52.600;13.328;2023-03-25T12:19:58;99502.31;;;11.65;100.00
2875;BME280;1445;52.600;13.328;2023-03-25T12:28:04;99494.53;;;12.00;100.00
2875;BME280;1445;52.600;13.328;2023-03-25T12:38:55;99462.47;;;12.69;100.00
2875;BME280;1445;52.600;13.328;2023-03-25T13:06:52;99489.66;;;11.52;100.00
2875;BME280;1445;52.600;13.328;2023-03-25T13:09:28;99509.28;;;11.50;100.00
2875;BME280;1445;52.600;13.328;2023-03-25T13:12:02;99498.47;;;11.45;100.00
2875;BME280;1445;52.600;13.328;2023-03-25T13:14:42;99510.34;;;11.16;100.00
2875;BME280;1445;52.600;13.328;2023-03-25T13:17:21;99510.97;;;11.21;100.00
2875;BME280;1445;52.600;13.328;2023-03-25T13:19:50;99499.66;;;12.23;100.00
2875;BME280;1445;52.600;13.328;2023-03-25T13:22:22;99498.19;;;11.92;100.00
2875;BME280;1445;52.600;13.328;2023-03-25T13:24:58;99477.78;;;12.30;100.00
2875;BME280;1445;52.600;13.328;2023-03-25T13:27:25;99487.63;;;11.94;100.00
2875;BME280;1445;52.600;13.328;2023-03-25T13:29:57;99486.59;;;11.65;100.00
2875;BME280;1445;52.600;13.328;2023-03-25T13:32:34;99513.88;;;11.25;100.00
2875;BME280;1445;52.600;13.328;2023-03-25T13:35:05;99497.13;;;11.09;100.00
2875;BME280;1445;52.600;13.328;2023-03-25T13:37:42;99502.97;;;11.08;100.00
2875;BME280;1445;52.600;13.328;2023-03-25T13:45:23;99493.63;;;11.21;100.00
2875;BME280;1445;52.600;13.328;2023-03-25T13:48:21;99485.63;;;11.28;100.00
2875;BME280;1445;52.600;13.328;2023-03-25T13:50:50;99486.22;;;11.34;100.00
2875;BME280;1445;52.600;13.328;2023-03-25T13:53:43;99493.88;;;11.49;100.00
2875;BME280;1445;52.600;13.328;2023-03-25T13:59:32;99486.28;;;11.79;100.00
2875;BME280;1445;52.600;13.328;2023-03-25T14:10:28;99458.13;;;13.08;100.00
2875;BME280;1445;52.600;13.328;2023-03-25T14:13:04;99458.22;;;12.72;100.00
2875;BME280;1445;52.600;13.328;2023-03-25T14:15:34;99472.38;;;12.33;100.00
2875;BME280;1445;52.600;13.328;2023-03-25T14:18:02;99483.66;;;12.40;100.00
2875;BME280;1445;52.600;13.328;2023-03-25T14:20:34;99484.00;;;12.51;100.00
2875;BME280;1445;52.600;13.328;2023-03-25T14:23:04;99474.50;;;12.03;100.00
2875;BME280;1445;52.600;13.328;2023-03-25T14:25:42;99466.16;;;12.12;100.00
2875;BME280;1445;52.600;13.328;2023-03-25T14:28:30;99477.66;;;12.38;100.00
2875;BME280;1445;52.600;13.328;2023-03-25T14:31:15;99469.72;;;12.37;100.00
2875;BME280;1445;52.600;13.328;2023-03-25T14:44:35;99449.22;;;11.68;100.00
2875;BME280;1445;52.600;13.328;2023-03-25T14:55:08;99450.09;;;13.44;100.00
2875;BME280;1445;52.600;13.328;2023-03-25T14:57:39;99454.03;;;13.87;100.00
2875;BME280;1445;52.600;13.328;2023-03-25T15:00:06;99439.13;;;14.07;100.00
2875;BME280;1445;52.600;13.328;2023-03-25T15:02:42;99452.00;;;14.47;100.00
2875;BME280;1445;52.600;13.328;2023-03-25T15:05:25;99435.84;;;14.84;100.00
2875;BME280;1445;52.600;13.328;2023-03-25T15:07:52;99440.56;;;14.17;100.00
2875;BME280;1445;52.600;13.328;2023-03-25T15:10:22;99439.31;;;14.30;100.00
2875;BME280;1445;52.600;13.328;2023-03-25T15:13:26;99443.44;;;14.04;100.00
2875;BME280;1445;52.600;13.328;2023-03-25T15:15:57;99421.13;;;14.64;100.00
2875;BME280;1445;52.600;13.328;2023-03-25T15:21:02;99426.97;;;14.43;100.00
2875;BME280;1445;52.600;13.328;2023-03-25T15:26:01;99434.31;;;14.04;100.00
2875;BME280;1445;52.600;13.328;2023-03-25T15:28:42;99422.16;;;14.08;100.00
2875;BME280;1445;52.600;13.328;2023-03-25T15:34:17;99428.09;;;14.42;100.00
2875;BME280;1445;52.600;13.328;2023-03-25T15:56:08;99426.44;;;12.41;100.00
2875;BME280;1445;52.600;13.328;2023-03-25T15:58:40;99441.63;;;12.35;100.00
2875;BME280;1445;52.600;13.328;2023-03-25T16:01:29;99429.31;;;12.08;100.00
2875;BME280;1445;52.600;13.328;2023-03-25T16:06:27;99436.25;;;11.81;100.00
2875;BME280;1445;52.600;13.328;2023-03-25T16:08:55;99435.91;;;11.82;100.00
2875;BME280;1445;52.600;13.328;2023-03-25T16:11:25;99440.38;;;11.75;100.00